KTMB

Miami Executive Airport

Miami, Florida, USA
METAR KTMB 210353Z AUTO 00000KT 10SM CLR 17/15 A3021 RMK AO2 SLP229 T01670150
Observed Flight Rules
Jan-21 @ 03:53 UTC (48 minutes ago) Visual Flight Rules
Wind Visibility Clouds
Calm 10 miles
  • Clear skies
Temperatures Readings
Current 17°C / 63°F
Dewpoint 15°C / 59°F
Humidity 88%
Altimeter 30.21" Hg
Pressure 1022.9 hPa
Elevation 2
METAR KTMB 210353Z AUTO 00000KT 10SM CLR 17/15 A3021 RMK AO2 SLP229 T01670150
Observed Flight Rules
Jan-21 @ 03:53 UTC
(48 minutes ago)
VFR
Wind Visibility
Calm 10 miles
Clouds
  • Clear skies
Temperature Dewpoint
17°C / 63°F 15°C / 59°F
Humidity Altimeter Pressure
88% 30.21" Hg 1022.9 hPa